sensor_id;sensor_type;location;lat;lon;timestamp;P1;P2;P0
55304;PMS7003;65692;51.378;19.824;2024-02-15T06:34:42;82.50;61.25;40.25
55304;PMS7003;65692;51.378;19.824;2024-02-15T06:37:52;76.75;57.00;39.75
55304;PMS7003;65692;51.378;19.824;2024-02-15T06:41:21;80.25;59.50;39.50
55304;PMS7003;65692;51.378;19.824;2024-02-15T06:43:58;84.50;61.25;40.00
55304;PMS7003;65692;51.378;19.824;2024-02-15T06:46:25;79.50;62.00;39.25
55304;PMS7003;65692;51.378;19.824;2024-02-15T06:48:51;81.25;60.75;38.00
55304;PMS7003;65692;51.378;19.824;2024-02-15T06:51:19;74.00;56.50;38.00
55304;PMS7003;65692;51.378;19.824;2024-02-15T06:53:46;82.00;60.50;39.00
55304;PMS7003;65692;51.378;19.824;2024-02-15T06:56:12;75.25;59.25;37.00
55304;PMS7003;65692;51.378;19.824;2024-02-15T06:58:40;75.50;56.25;37.00
55304;PMS7003;65692;51.378;19.824;2024-02-15T07:01:08;69.75;51.75;34.25
55304;PMS7003;65692;51.378;19.824;2024-02-15T07:03:35;71.50;54.75;37.25
55304;PMS7003;65692;51.378;19.824;2024-02-15T07:06:01;68.75;54.50;36.25
55304;PMS7003;65692;51.378;19.824;2024-02-15T07:08:29;76.00;53.75;35.75
55304;PMS7003;65692;51.378;19.824;2024-02-15T07:10:57;67.25;51.25;35.00
55304;PMS7003;65692;51.378;19.824;2024-02-15T07:13:25;69.00;50.50;34.75
55304;PMS7003;65692;51.378;19.824;2024-02-15T07:15:53;70.25;53.50;36.25
55304;PMS7003;65692;51.378;19.824;2024-02-15T07:18:20;78.50;55.50;35.75
55304;PMS7003;65692;51.378;19.824;2024-02-15T07:20:54;68.50;53.50;36.50
55304;PMS7003;65692;51.378;19.824;2024-02-15T07:23:22;69.50;53.75;36.25
55304;PMS7003;65692;51.378;19.824;2024-02-15T07:25:48;70.50;54.75;38.00
55304;PMS7003;65692;51.378;19.824;2024-02-15T07:28:17;74.00;53.00;37.00
55304;PMS7003;65692;51.378;19.824;2024-02-15T07:30:44;70.50;55.75;36.00
55304;PMS7003;65692;51.378;19.824;2024-02-15T07:33:12;70.75;51.75;36.00
55304;PMS7003;65692;51.378;19.824;2024-02-15T07:35:41;62.00;48.25;35.50
55304;PMS7003;65692;51.378;19.824;2024-02-15T07:38:09;66.50;49.50;34.00
55304;PMS7003;65692;51.378;19.824;2024-02-15T07:40:36;65.25;49.75;35.00
55304;PMS7003;65692;51.378;19.824;2024-02-15T07:43:03;67.75;46.50;33.00
55304;PMS7003;65692;51.378;19.824;2024-02-15T07:45:29;61.50;46.00;31.50
55304;PMS7003;65692;51.378;19.824;2024-02-15T07:47:58;61.50;49.00;31.75
55304;PMS7003;65692;51.378;19.824;2024-02-15T07:50:25;64.00;50.50;33.25
55304;PMS7003;65692;51.378;19.824;2024-02-15T07:52:51;66.00;52.25;33.25
55304;PMS7003;65692;51.378;19.824;2024-02-15T07:55:18;65.75;53.25;33.25
55304;PMS7003;65692;51.378;19.824;2024-02-15T07:57:45;69.00;52.25;34.25
55304;PMS7003;65692;51.378;19.824;2024-02-15T08:00:17;59.75;44.75;28.25
55304;PMS7003;65692;51.378;19.824;2024-02-15T08:02:44;63.50;51.50;36.00
55304;PMS7003;65692;51.378;19.824;2024-02-15T08:05:11;57.75;46.25;29.75
55304;PMS7003;65692;51.378;19.824;2024-02-15T08:07:42;64.25;48.00;33.50
55304;PMS7003;65692;51.378;19.824;2024-02-15T08:10:09;65.00;47.50;30.00
55304;PMS7003;65692;51.378;19.824;2024-02-15T08:12:42;66.25;52.00;34.75
55304;PMS7003;65692;51.378;19.824;2024-02-15T08:15:09;60.75;49.25;32.25
55304;PMS7003;65692;51.378;19.824;2024-02-15T08:20:12;65.75;48.75;34.25
55304;PMS7003;65692;51.378;19.824;2024-02-15T08:22:40;59.00;46.25;31.75
55304;PMS7003;65692;51.378;19.824;2024-02-15T08:25:10;60.50;48.00;31.25
55304;PMS7003;65692;51.378;19.824;2024-02-15T08:27:38;59.25;44.50;29.25
55304;PMS7003;65692;51.378;19.824;2024-02-15T08:30:12;57.00;43.33;29.67
55304;PMS7003;65692;51.378;19.824;2024-02-15T08:32:40;48.00;43.00;30.33
55304;PMS7003;65692;51.378;19.824;2024-02-15T08:35:09;62.50;48.00;30.25
55304;PMS7003;65692;51.378;19.824;2024-02-15T08:37:36;45.50;40.00;25.75
55304;PMS7003;65692;51.378;19.824;2024-02-15T08:40:04;64.50;49.75;33.00
55304;PMS7003;65692;51.378;19.824;2024-02-15T08:42:40;67.25;51.00;33.50
55304;PMS7003;65692;51.378;19.824;2024-02-15T08:45:07;65.00;50.50;34.00
55304;PMS7003;65692;51.378;19.824;2024-02-15T08:47:37;69.25;52.50;34.00
55304;PMS7003;65692;51.378;19.824;2024-02-15T08:50:06;76.75;57.25;36.00
55304;PMS7003;65692;51.378;19.824;2024-02-15T08:52:33;66.00;50.25;33.00
55304;PMS7003;65692;51.378;19.824;2024-02-15T08:55:00;63.00;50.25;34.50
55304;PMS7003;65692;51.378;19.824;2024-02-15T08:57:27;74.75;55.75;35.00
55304;PMS7003;65692;51.378;19.824;2024-02-15T08:59:54;69.75;52.50;36.00
55304;PMS7003;65692;51.378;19.824;2024-02-15T09:02:21;64.25;49.75;35.00
55304;PMS7003;65692;51.378;19.824;2024-02-15T09:04:48;59.25;48.25;31.50
55304;PMS7003;65692;51.378;19.824;2024-02-15T09:07:14;58.33;45.33;30.00
55304;PMS7003;65692;51.378;19.824;2024-02-15T09:09:41;61.75;49.50;32.00
55304;PMS7003;65692;51.378;19.824;2024-02-15T09:12:08;71.00;54.75;35.00
55304;PMS7003;65692;51.378;19.824;2024-02-15T09:14:35;71.50;52.25;35.00
55304;PMS7003;65692;51.378;19.824;2024-02-15T09:17:05;65.50;52.75;34.00
55304;PMS7003;65692;51.378;19.824;2024-02-15T09:19:34;67.25;52.50;33.50
55304;PMS7003;65692;51.378;19.824;2024-02-15T09:22:01;66.33;48.67;31.33
55304;PMS7003;65692;51.378;19.824;2024-02-15T09:24:30;66.00;46.67;30.33
55304;PMS7003;65692;51.378;19.824;2024-02-15T09:27:00;57.33;45.00;30.33
55304;PMS7003;65692;51.378;19.824;2024-02-15T09:29:28;58.75;45.25;31.25
55304;PMS7003;65692;51.378;19.824;2024-02-15T09:31:56;60.75;45.25;30.50
55304;PMS7003;65692;51.378;19.824;2024-02-15T09:34:24;58.67;45.33;31.33
55304;PMS7003;65692;51.378;19.824;2024-02-15T09:36:51;56.00;43.67;28.67
55304;PMS7003;65692;51.378;19.824;2024-02-15T09:39:18;56.00;48.33;31.33
55304;PMS7003;65692;51.378;19.824;2024-02-15T09:41:45;66.00;49.75;33.75
55304;PMS7003;65692;51.378;19.824;2024-02-15T09:44:11;63.00;49.00;33.00
55304;PMS7003;65692;51.378;19.824;2024-02-15T09:46:42;52.67;41.33;28.00
55304;PMS7003;65692;51.378;19.824;2024-02-15T09:49:11;23.33;11.00;0.00
55304;PMS7003;65692;51.378;19.824;2024-02-15T09:51:39;52.67;42.00;27.67
55304;PMS7003;65692;51.378;19.824;2024-02-15T09:54:06;55.00;41.33;30.00
55304;PMS7003;65692;51.378;19.824;2024-02-15T09:56:35;56.67;40.00;28.00
55304;PMS7003;65692;51.378;19.824;2024-02-15T09:59:02;66.33;51.67;33.00
55304;PMS7003;65692;51.378;19.824;2024-02-15T10:01:31;64.00;46.00;31.67
55304;PMS7003;65692;51.378;19.824;2024-02-15T10:03:58;61.33;46.33;30.67
55304;PMS7003;65692;51.378;19.824;2024-02-15T10:06:25;58.33;45.00;30.00
55304;PMS7003;65692;51.378;19.824;2024-02-15T10:08:53;57.00;44.67;30.00
55304;PMS7003;65692;51.378;19.824;2024-02-15T10:11:20;57.33;43.33;29.67
55304;PMS7003;65692;51.378;19.824;2024-02-15T10:13:47;58.00;44.00;29.00
55304;PMS7003;65692;51.378;19.824;2024-02-15T10:16:17;59.00;44.67;31.67
55304;PMS7003;65692;51.378;19.824;2024-02-15T10:18:45;51.67;40.00;29.00
55304;PMS7003;65692;51.378;19.824;2024-02-15T10:21:23;46.25;38.00;26.50
55304;PMS7003;65692;51.378;19.824;2024-02-15T10:24:02;52.25;41.25;26.75
55304;PMS7003;65692;51.378;19.824;2024-02-15T10:26:31;53.33;43.00;28.67
55304;PMS7003;65692;51.378;19.824;2024-02-15T10:29:05;47.50;36.25;25.75
55304;PMS7003;65692;51.378;19.824;2024-02-15T10:31:36;54.25;41.00;27.50
55304;PMS7003;65692;51.378;19.824;2024-02-15T10:34:06;43.25;36.00;25.75
55304;PMS7003;65692;51.378;19.824;2024-02-15T10:36:38;39.00;34.00;24.00
55304;PMS7003;65692;51.378;19.824;2024-02-15T10:39:11;41.25;35.75;24.00
55304;PMS7003;65692;51.378;19.824;2024-02-15T10:44:13;37.00;29.25;21.25
55304;PMS7003;65692;51.378;19.824;2024-02-15T10:46:42;27.50;24.00;16.25
55304;PMS7003;65692;51.378;19.824;2024-02-15T10:49:08;27.25;26.00;19.00
55304;PMS7003;65692;51.378;19.824;2024-02-15T10:51:36;34.75;32.25;22.75
55304;PMS7003;65692;51.378;19.824;2024-02-15T10:54:10;34.25;30.00;18.75
55304;PMS7003;65692;51.378;19.824;2024-02-15T10:56:42;40.00;34.25;24.00
55304;PMS7003;65692;51.378;19.824;2024-02-15T10:59:15;34.00;31.00;21.00
55304;PMS7003;65692;51.378;19.824;2024-02-15T11:01:42;27.25;24.00;17.50
55304;PMS7003;65692;51.378;19.824;2024-02-15T11:04:13;36.25;29.25;21.75
55304;PMS7003;65692;51.378;19.824;2024-02-15T11:06:41;34.50;32.50;22.00
55304;PMS7003;65692;51.378;19.824;2024-02-15T11:09:10;44.25;32.25;23.50
55304;PMS7003;65692;51.378;19.824;2024-02-15T11:11:38;38.50;30.75;22.50
55304;PMS7003;65692;51.378;19.824;2024-02-15T11:16:51;39.50;35.25;21.75
55304;PMS7003;65692;51.378;19.824;2024-02-15T11:20:03;35.25;29.75;21.25
55304;PMS7003;65692;51.378;19.824;2024-02-15T11:22:09;34.00;27.75;20.75
55304;PMS7003;65692;51.378;19.824;2024-02-15T11:24:38;31.00;24.25;17.00
55304;PMS7003;65692;51.378;19.824;2024-02-15T11:27:11;36.75;30.25;22.75
55304;PMS7003;65692;51.378;19.824;2024-02-15T11:29:49;33.75;31.00;22.25
55304;PMS7003;65692;51.378;19.824;2024-02-15T11:35:07;36.25;28.50;21.25
55304;PMS7003;65692;51.378;19.824;2024-02-15T11:40:26;28.75;26.75;17.00
55304;PMS7003;65692;51.378;19.824;2024-02-15T11:42:56;33.50;31.50;22.00
55304;PMS7003;65692;51.378;19.824;2024-02-15T11:45:27;42.75;32.00;21.25
55304;PMS7003;65692;51.378;19.824;2024-02-15T11:48:07;30.75;28.75;20.75
55304;PMS7003;65692;51.378;19.824;2024-02-15T11:50:34;38.75;31.50;21.25
55304;PMS7003;65692;51.378;19.824;2024-02-15T11:53:04;39.00;33.50;23.75
55304;PMS7003;65692;51.378;19.824;2024-02-15T11:55:39;35.25;29.50;22.00
55304;PMS7003;65692;51.378;19.824;2024-02-15T11:58:07;34.25;31.00;23.00
55304;PMS7003;65692;51.378;19.824;2024-02-15T12:00:34;33.25;29.75;22.00
55304;PMS7003;65692;51.378;19.824;2024-02-15T12:03:22;33.00;27.50;20.50
55304;PMS7003;65692;51.378;19.824;2024-02-15T12:06:22;25.75;23.00;14.25
55304;PMS7003;65692;51.378;19.824;2024-02-15T12:09:08;21.25;17.50;14.25
55304;PMS7003;65692;51.378;19.824;2024-02-15T12:11:57;13.50;9.00;8.25
55304;PMS7003;65692;51.378;19.824;2024-02-15T12:14:43;30.50;28.75;20.25
55304;PMS7003;65692;51.378;19.824;2024-02-15T12:17:28;22.75;21.25;15.75
55304;PMS7003;65692;51.378;19.824;2024-02-15T12:20:14;23.00;18.75;15.00
55304;PMS7003;65692;51.378;19.824;2024-02-15T12:22:44;29.25;25.50;18.50
55304;PMS7003;65692;51.378;19.824;2024-02-15T12:25:16;32.00;26.50;19.75
55304;PMS7003;65692;51.378;19.824;2024-02-15T12:27:43;38.00;31.00;21.75
55304;PMS7003;65692;51.378;19.824;2024-02-15T12:30:14;39.75;36.00;24.75
55304;PMS7003;65692;51.378;19.824;2024-02-15T12:32:41;24.00;16.00;11.00
55304;PMS7003;65692;51.378;19.824;2024-02-15T12:35:12;25.25;21.50;15.75
55304;PMS7003;65692;51.378;19.824;2024-02-15T12:37:43;23.50;20.50;16.00
55304;PMS7003;65692;51.378;19.824;2024-02-15T12:40:15;18.75;18.00;14.50
55304;PMS7003;65692;51.378;19.824;2024-02-15T12:42:44;23.00;21.50;16.50
55304;PMS7003;65692;51.378;19.824;2024-02-15T12:45:17;28.25;25.00;18.75
55304;PMS7003;65692;51.378;19.824;2024-02-15T12:50:19;28.00;24.75;17.25
55304;PMS7003;65692;51.378;19.824;2024-02-15T12:52:48;27.25;23.00;17.25
55304;PMS7003;65692;51.378;19.824;2024-02-15T12:57:44;32.00;30.00;23.00
55304;PMS7003;65692;51.378;19.824;2024-02-15T13:00:15;30.50;28.50;23.00
55304;PMS7003;65692;51.378;19.824;2024-02-15T13:02:48;24.75;24.25;17.00
55304;PMS7003;65692;51.378;19.824;2024-02-15T13:05:19;26.25;25.50;18.00
55304;PMS7003;65692;51.378;19.824;2024-02-15T13:07:47;27.50;22.75;17.00
55304;PMS7003;65692;51.378;19.824;2024-02-15T13:10:13;26.50;19.75;15.00
55304;PMS7003;65692;51.378;19.824;2024-02-15T13:12:41;34.50;28.00;20.25
55304;PMS7003;65692;51.378;19.824;2024-02-15T13:15:09;31.25;27.00;19.50
55304;PMS7003;65692;51.378;19.824;2024-02-15T13:17:44;36.50;29.50;20.25
55304;PMS7003;65692;51.378;19.824;2024-02-15T13:20:20;25.75;19.75;13.25
55304;PMS7003;65692;51.378;19.824;2024-02-15T13:22:56;19.75;18.00;11.50
55304;PMS7003;65692;51.378;19.824;2024-02-15T13:25:35;29.50;20.75;15.50
55304;PMS7003;65692;51.378;19.824;2024-02-15T13:28:03;20.00;19.50;14.75
55304;PMS7003;65692;51.378;19.824;2024-02-15T13:30:31;18.75;18.75;15.25
55304;PMS7003;65692;51.378;19.824;2024-02-15T13:32:58;22.75;22.50;17.25
55304;PMS7003;65692;51.378;19.824;2024-02-15T13:35:26;34.75;28.75;20.50
55304;PMS7003;65692;51.378;19.824;2024-02-15T13:37:53;45.25;35.00;23.00
55304;PMS7003;65692;51.378;19.824;2024-02-15T13:40:20;36.25;31.00;20.75
55304;PMS7003;65692;51.378;19.824;2024-02-15T13:42:50;35.00;30.50;21.50
55304;PMS7003;65692;51.378;19.824;2024-02-15T13:47:49;33.75;32.50;21.75
55304;PMS7003;65692;51.378;19.824;2024-02-15T13:50:23;38.75;34.00;22.25
55304;PMS7003;65692;51.378;19.824;2024-02-15T13:52:50;42.75;34.00;23.00
55304;PMS7003;65692;51.378;19.824;2024-02-15T13:55:17;34.75;29.50;21.25
55304;PMS7003;65692;51.378;19.824;2024-02-15T13:57:45;43.50;34.50;24.25
55304;PMS7003;65692;51.378;19.824;2024-02-15T14:00:14;36.25;33.75;22.75
55304;PMS7003;65692;51.378;19.824;2024-02-15T14:02:57;37.00;32.25;21.25
55304;PMS7003;65692;51.378;19.824;2024-02-15T14:05:29;31.75;28.75;21.25
55304;PMS7003;65692;51.378;19.824;2024-02-15T14:07:57;36.50;31.00;22.75
55304;PMS7003;65692;51.378;19.824;2024-02-15T14:10:24;35.75;33.75;24.00
55304;PMS7003;65692;51.378;19.824;2024-02-15T14:12:51;37.25;34.50;24.50
55304;PMS7003;65692;51.378;19.824;2024-02-15T14:15:21;39.50;34.50;22.75
55304;PMS7003;65692;51.378;19.824;2024-02-15T14:17:48;39.75;35.25;25.00
55304;PMS7003;65692;51.378;19.824;2024-02-15T14:20:16;45.75;36.25;25.00
55304;PMS7003;65692;51.378;19.824;2024-02-15T14:22:46;47.33;38.00;25.67
55304;PMS7003;65692;51.378;19.824;2024-02-15T14:25:16;51.67;43.33;28.33
55304;PMS7003;65692;51.378;19.824;2024-02-15T14:27:42;53.67;42.00;28.00
55304;PMS7003;65692;51.378;19.824;2024-02-15T14:30:09;45.50;37.75;26.00
55304;PMS7003;65692;51.378;19.824;2024-02-15T14:32:54;46.25;36.25;25.00
55304;PMS7003;65692;51.378;19.824;2024-02-15T14:35:35;43.67;35.33;25.33
55304;PMS7003;65692;51.378;19.824;2024-02-15T14:38:03;51.00;38.00;26.25
55304;PMS7003;65692;51.378;19.824;2024-02-15T14:40:33;46.33;40.67;26.00
55304;PMS7003;65692;51.378;19.824;2024-02-15T14:43:03;38.50;33.50;23.50
55304;PMS7003;65692;51.378;19.824;2024-02-15T14:45:33;44.25;36.00;24.00
55304;PMS7003;65692;51.378;19.824;2024-02-15T14:48:01;49.50;37.50;25.25
55304;PMS7003;65692;51.378;19.824;2024-02-15T14:50:29;52.50;40.75;27.00
55304;PMS7003;65692;51.378;19.824;2024-02-15T14:52:56;58.00;46.33;30.67
55304;PMS7003;65692;51.378;19.824;2024-02-15T14:55:24;44.75;36.00;24.75
55304;PMS7003;65692;51.378;19.824;2024-02-15T14:57:51;37.75;33.25;24.50
55304;PMS7003;65692;51.378;19.824;2024-02-15T15:00:17;41.50;32.50;23.25
55304;PMS7003;65692;51.378;19.824;2024-02-15T15:02:46;36.75;33.00;23.00
55304;PMS7003;65692;51.378;19.824;2024-02-15T15:05:13;39.00;34.25;23.25
55304;PMS7003;65692;51.378;19.824;2024-02-15T15:07:58;42.75;35.75;23.75
55304;PMS7003;65692;51.378;19.824;2024-02-15T15:10:47;29.25;25.75;19.50
55304;PMS7003;65692;51.378;19.824;2024-02-15T15:13:33;37.00;30.75;22.00
55304;PMS7003;65692;51.378;19.824;2024-02-15T15:16:00;45.50;37.25;26.00
55304;PMS7003;65692;51.378;19.824;2024-02-15T15:18:27;40.50;35.75;24.75
55304;PMS7003;65692;51.378;19.824;2024-02-15T15:20:55;43.25;35.25;24.25
55304;PMS7003;65692;51.378;19.824;2024-02-15T15:23:21;42.50;34.25;24.00
55304;PMS7003;65692;51.378;19.824;2024-02-15T15:25:48;41.50;31.50;23.00
55304;PMS7003;65692;51.378;19.824;2024-02-15T15:28:15;38.25;32.00;22.00
55304;PMS7003;65692;51.378;19.824;2024-02-15T15:30:42;43.00;37.75;24.75
55304;PMS7003;65692;51.378;19.824;2024-02-15T15:33:15;37.75;32.75;24.00
55304;PMS7003;65692;51.378;19.824;2024-02-15T15:35:42;42.75;36.75;26.25
55304;PMS7003;65692;51.378;19.824;2024-02-15T15:38:09;39.75;34.00;24.00
55304;PMS7003;65692;51.378;19.824;2024-02-15T15:40:36;33.25;28.75;22.75
55304;PMS7003;65692;51.378;19.824;2024-02-15T15:43:03;41.75;37.25;24.25
55304;PMS7003;65692;51.378;19.824;2024-02-15T15:45:34;47.33;39.67;27.00
55304;PMS7003;65692;51.378;19.824;2024-02-15T15:48:01;49.00;41.67;27.67
55304;PMS7003;65692;51.378;19.824;2024-02-15T15:50:30;39.50;33.75;23.75
55304;PMS7003;65692;51.378;19.824;2024-02-15T15:53:02;41.25;37.25;25.25
55304;PMS7003;65692;51.378;19.824;2024-02-15T15:55:29;49.67;40.67;29.00
55304;PMS7003;65692;51.378;19.824;2024-02-15T15:57:56;60.00;42.00;29.33
55304;PMS7003;65692;51.378;19.824;2024-02-15T16:00:23;56.67;42.33;29.33
55304;PMS7003;65692;51.378;19.824;2024-02-15T16:02:50;43.50;33.50;23.75
55304;PMS7003;65692;51.378;19.824;2024-02-15T16:05:22;45.50;35.75;24.25
55304;PMS7003;65692;51.378;19.824;2024-02-15T16:07:50;41.25;33.50;26.00
55304;PMS7003;65692;51.378;19.824;2024-02-15T16:10:18;29.33;22.00;8.00
55304;PMS7003;65692;51.378;19.824;2024-02-15T16:12:46;53.67;42.00;28.00
55304;PMS7003;65692;51.378;19.824;2024-02-15T16:15:13;59.67;41.33;29.33
55304;PMS7003;65692;51.378;19.824;2024-02-15T16:17:43;54.33;43.00;28.67
55304;PMS7003;65692;51.378;19.824;2024-02-15T16:20:11;57.25;44.50;29.50
55304;PMS7003;65692;51.378;19.824;2024-02-15T16:22:41;62.33;48.33;32.33
55304;PMS7003;65692;51.378;19.824;2024-02-15T16:25:08;56.67;43.00;29.33
55304;PMS7003;65692;51.378;19.824;2024-02-15T16:27:36;58.67;43.33;31.67
55304;PMS7003;65692;51.378;19.824;2024-02-15T16:30:06;57.33;47.67;32.67
55304;PMS7003;65692;51.378;19.824;2024-02-15T16:32:37;57.67;46.33;32.00
55304;PMS7003;65692;51.378;19.824;2024-02-15T16:35:06;66.25;49.00;33.00
55304;PMS7003;65692;51.378;19.824;2024-02-15T16:37:38;62.50;49.75;33.00
55304;PMS7003;65692;51.378;19.824;2024-02-15T16:40:08;65.75;52.75;35.50
55304;PMS7003;65692;51.378;19.824;2024-02-15T16:42:35;74.75;57.75;37.25
55304;PMS7003;65692;51.378;19.824;2024-02-15T16:45:09;83.50;62.50;41.00
55304;PMS7003;65692;51.378;19.824;2024-02-15T16:47:37;82.50;60.00;42.00
55304;PMS7003;65692;51.378;19.824;2024-02-15T16:50:03;83.50;64.00;40.25
55304;PMS7003;65692;51.378;19.824;2024-02-15T16:52:37;67.50;50.25;35.50
55304;PMS7003;65692;51.378;19.824;2024-02-15T16:55:08;69.25;50.25;33.00
55304;PMS7003;65692;51.378;19.824;2024-02-15T16:57:35;72.50;51.00;34.00
55304;PMS7003;65692;51.378;19.824;2024-02-15T17:00:02;64.50;51.00;34.75
55304;PMS7003;65692;51.378;19.824;2024-02-15T17:02:34;65.25;50.50;36.00
55304;PMS7003;65692;51.378;19.824;2024-02-15T17:05:01;60.00;46.25;32.75
55304;PMS7003;65692;51.378;19.824;2024-02-15T17:07:30;64.50;46.50;32.50
55304;PMS7003;65692;51.378;19.824;2024-02-15T17:09:57;69.25;53.25;34.75
55304;PMS7003;65692;51.378;19.824;2024-02-15T17:12:24;62.75;47.00;31.00
55304;PMS7003;65692;51.378;19.824;2024-02-15T17:14:50;60.00;47.00;31.75
55304;PMS7003;65692;51.378;19.824;2024-02-15T17:17:17;60.50;49.50;33.00
55304;PMS7003;65692;51.378;19.824;2024-02-15T17:19:44;62.00;42.50;29.75
55304;PMS7003;65692;51.378;19.824;2024-02-15T17:22:12;62.75;46.50;31.50
55304;PMS7003;65692;51.378;19.824;2024-02-15T17:24:41;62.00;48.50;31.75
55304;PMS7003;65692;51.378;19.824;2024-02-15T17:27:07;78.50;58.50;37.50
55304;PMS7003;65692;51.378;19.824;2024-02-15T17:29:34;76.50;56.00;37.75
55304;PMS7003;65692;51.378;19.824;2024-02-15T17:32:01;85.50;65.50;42.25
55304;PMS7003;65692;51.378;19.824;2024-02-15T17:34:28;68.25;52.25;33.75
55304;PMS7003;65692;51.378;19.824;2024-02-15T17:36:57;57.50;44.25;30.75
55304;PMS7003;65692;51.378;19.824;2024-02-15T17:39:24;56.25;44.00;29.50
55304;PMS7003;65692;51.378;19.824;2024-02-15T17:41:51;62.00;48.25;31.75
55304;PMS7003;65692;51.378;19.824;2024-02-15T17:44:19;61.25;45.25;31.25
55304;PMS7003;65692;51.378;19.824;2024-02-15T17:46:46;45.67;35.67;25.67
55304;PMS7003;65692;51.378;19.824;2024-02-15T17:49:13;53.00;42.75;29.00
55304;PMS7003;65692;51.378;19.824;2024-02-15T17:51:39;57.00;45.00;30.00
55304;PMS7003;65692;51.378;19.824;2024-02-15T17:54:09;67.00;48.50;31.00
55304;PMS7003;65692;51.378;19.824;2024-02-15T17:56:36;56.25;43.25;30.50
55304;PMS7003;65692;51.378;19.824;2024-02-15T17:59:03;62.75;47.50;30.00
55304;PMS7003;65692;51.378;19.824;2024-02-15T18:01:30;57.00;43.00;29.00
55304;PMS7003;65692;51.378;19.824;2024-02-15T18:03:58;70.00;52.25;33.25
55304;PMS7003;65692;51.378;19.824;2024-02-15T18:06:25;61.75;48.75;32.25
55304;PMS7003;65692;51.378;19.824;2024-02-15T18:08:52;66.75;50.75;34.00
55304;PMS7003;65692;51.378;19.824;2024-02-15T18:11:19;67.50;51.00;34.50
55304;PMS7003;65692;51.378;19.824;2024-02-15T18:13:46;68.75;52.75;34.75
55304;PMS7003;65692;51.378;19.824;2024-02-15T18:16:13;71.50;49.00;33.50
55304;PMS7003;65692;51.378;19.824;2024-02-15T18:18:42;68.00;54.25;36.00
55304;PMS7003;65692;51.378;19.824;2024-02-15T18:21:09;62.25;49.25;34.00
55304;PMS7003;65692;51.378;19.824;2024-02-15T18:23:36;68.50;53.50;36.00
55304;PMS7003;65692;51.378;19.824;2024-02-15T18:26:05;67.00;56.00;37.50
55304;PMS7003;65692;51.378;19.824;2024-02-15T18:28:32;72.50;53.50;36.00
55304;PMS7003;65692;51.378;19.824;2024-02-15T18:30:59;77.00;56.25;38.00
55304;PMS7003;65692;51.378;19.824;2024-02-15T18:33:25;74.00;56.50;36.00
55304;PMS7003;65692;51.378;19.824;2024-02-15T18:35:55;67.00;53.00;35.00
55304;PMS7003;65692;51.378;19.824;2024-02-15T18:38:24;75.75;57.75;39.00
55304;PMS7003;65692;51.378;19.824;2024-02-15T18:40:54;70.50;56.00;36.75
55304;PMS7003;65692;51.378;19.824;2024-02-15T18:43:26;76.00;58.75;39.00
55304;PMS7003;65692;51.378;19.824;2024-02-15T18:45:53;55.50;41.00;21.25
55304;PMS7003;65692;51.378;19.824;2024-02-15T18:48:20;70.25;55.75;36.00
55304;PMS7003;65692;51.378;19.824;2024-02-15T18:50:47;69.50;51.75;35.50
55304;PMS7003;65692;51.378;19.824;2024-02-15T18:53:14;71.50;55.00;35.50
55304;PMS7003;65692;51.378;19.824;2024-02-15T18:55:42;66.25;53.25;33.25
55304;PMS7003;65692;51.378;19.824;2024-02-15T18:58:08;65.25;51.75;33.00
55304;PMS7003;65692;51.378;19.824;2024-02-15T19:00:35;63.00;50.25;34.75
55304;PMS7003;65692;51.378;19.824;2024-02-15T19:03:14;64.75;50.75;33.00
55304;PMS7003;65692;51.378;19.824;2024-02-15T19:05:41;63.50;50.75;33.25
55304;PMS7003;65692;51.378;19.824;2024-02-15T19:08:10;75.75;52.50;36.00
55304;PMS7003;65692;51.378;19.824;2024-02-15T19:10:37;73.50;56.25;37.00
55304;PMS7003;65692;51.378;19.824;2024-02-15T19:13:04;69.75;53.50;35.25
55304;PMS7003;65692;51.378;19.824;2024-02-15T19:15:30;73.25;52.75;36.00
55304;PMS7003;65692;51.378;19.824;2024-02-15T19:17:59;71.00;55.00;36.00
55304;PMS7003;65692;51.378;19.824;2024-02-15T19:20:31;62.00;44.25;30.75
55304;PMS7003;65692;51.378;19.824;2024-02-15T19:22:58;62.75;46.75;30.00
55304;PMS7003;65692;51.378;19.824;2024-02-15T19:25:25;55.00;44.25;28.25
55304;PMS7003;65692;51.378;19.824;2024-02-15T19:27:52;55.75;46.00;32.00
55304;PMS7003;65692;51.378;19.824;2024-02-15T19:30:19;59.00;48.25;33.75
55304;PMS7003;65692;51.378;19.824;2024-02-15T19:32:46;63.00;48.75;33.00
55304;PMS7003;65692;51.378;19.824;2024-02-15T19:35:16;60.25;46.00;33.00
55304;PMS7003;65692;51.378;19.824;2024-02-15T19:37:43;58.00;46.75;30.25
55304;PMS7003;65692;51.378;19.824;2024-02-15T19:40:12;66.75;49.25;33.25
55304;PMS7003;65692;51.378;19.824;2024-02-15T19:42:45;70.00;50.25;34.50
55304;PMS7003;65692;51.378;19.824;2024-02-15T19:45:15;68.00;49.25;32.50
55304;PMS7003;65692;51.378;19.824;2024-02-15T19:47:47;61.50;44.50;30.00
55304;PMS7003;65692;51.378;19.824;2024-02-15T19:50:14;62.50;50.75;32.25
55304;PMS7003;65692;51.378;19.824;2024-02-15T19:52:45;71.50;52.75;35.00
55304;PMS7003;65692;51.378;19.824;2024-02-15T19:55:13;61.75;45.75;30.75
55304;PMS7003;65692;51.378;19.824;2024-02-15T19:57:41;53.75;45.25;30.50
55304;PMS7003;65692;51.378;19.824;2024-02-15T20:00:08;70.75;48.25;31.00
55304;PMS7003;65692;51.378;19.824;2024-02-15T20:02:36;55.75;45.25;30.75
55304;PMS7003;65692;51.378;19.824;2024-02-15T20:05:08;49.00;38.25;26.00
55304;PMS7003;65692;51.378;19.824;2024-02-15T20:07:35;63.50;49.25;31.50
55304;PMS7003;65692;51.378;19.824;2024-02-15T20:10:04;58.50;45.25;31.00
55304;PMS7003;65692;51.378;19.824;2024-02-15T20:12:33;57.50;46.00;29.00
55304;PMS7003;65692;51.378;19.824;2024-02-15T20:15:01;60.75;45.25;30.00
55304;PMS7003;65692;51.378;19.824;2024-02-15T20:17:28;57.50;45.25;31.50
55304;PMS7003;65692;51.378;19.824;2024-02-15T20:19:55;58.00;45.25;30.25
55304;PMS7003;65692;51.378;19.824;2024-02-15T20:22:22;60.50;45.50;30.00
55304;PMS7003;65692;51.378;19.824;2024-02-15T20:24:48;67.25;47.00;30.00
55304;PMS7003;65692;51.378;19.824;2024-02-15T20:27:15;56.25;41.00;26.75
55304;PMS7003;65692;51.378;19.824;2024-02-15T20:29:46;61.25;47.25;31.00
55304;PMS7003;65692;51.378;19.824;2024-02-15T20:32:13;76.50;57.75;38.00
55304;PMS7003;65692;51.378;19.824;2024-02-15T20:34:39;71.50;53.25;36.50
55304;PMS7003;65692;51.378;19.824;2024-02-15T20:37:06;69.25;55.25;36.50
55304;PMS7003;65692;51.378;19.824;2024-02-15T20:39:32;73.00;49.75;34.25
55304;PMS7003;65692;51.378;19.824;2024-02-15T20:42:01;65.25;52.25;35.25